Time;durP1;ratioP1;P1;durP2;ratioP2;P2;SDS_P1;SDS_P2;PMS_P1;PMS_P2;Temp;Humidity;BMP_temperature;BMP_pressure;BME280_temperature;BME280_humidity;BME280_pressure;Samples;Min_cycle;Max_cycle;Signal;HPM_P1;HPM_P2
2021/12/11 00:00:17;;;;;;;87.20;37.60;;;;;;;-0.26;85.28;99659.48;84796;1323;22623;-69
2021/12/11 00:02:43;;;;;;;78.60;35.60;;;;;;;-0.24;85.44;99663.60;84744;1328;25312;-68
2021/12/11 00:04:54;;;;;;;84.10;38.60;;;;;;;-0.25;85.34;99670.46;84741;1327;23793;-68
2021/12/11 00:07:02;;;;;;;89.20;40.50;;;;;;;-0.26;85.25;99674.39;84634;1329;22776;-68
2021/12/11 00:09:14;;;;;;;101.40;41.10;;;;;;;-0.28;85.57;99676.12;84762;1327;22589;-72
2021/12/11 00:11:23;;;;;;;86.50;38.30;;;;;;;-0.26;85.69;99678.34;84818;1328;25959;-68
2021/12/11 00:13:31;;;;;;;87.50;40.50;;;;;;;-0.23;85.39;99677.14;84807;1327;22627;-68
2021/12/11 00:15:41;;;;;;;79.20;37.40;;;;;;;-0.21;85.42;99676.09;84800;1329;22603;-68
2021/12/11 00:17:47;;;;;;;87.70;39.10;;;;;;;-0.18;85.48;99671.96;84732;1330;26510;-68
2021/12/11 00:19:54;;;;;;;91.20;39.40;;;;;;;-0.16;85.44;99672.97;84791;1328;22587;-68
2021/12/11 00:22:07;;;;;;;91.50;40.30;;;;;;;-0.17;85.22;99675.38;84833;1328;22596;-74
2021/12/11 00:24:15;;;;;;;94.60;42.00;;;;;;;-0.18;85.08;99676.08;84803;1326;22721;-74
2021/12/11 00:26:29;;;;;;;96.20;39.10;;;;;;;-0.19;85.30;99681.05;84675;1328;22677;-72
2021/12/11 00:28:42;;;;;;;91.30;42.00;;;;;;;-0.20;85.38;99678.30;84802;1327;24272;-75
2021/12/11 00:30:49;;;;;;;91.10;39.70;;;;;;;-0.20;85.22;99674.36;84801;1326;22620;-75
2021/12/11 00:32:59;;;;;;;86.40;39.10;;;;;;;-0.18;85.26;99676.08;84766;1327;22823;-74
2021/12/11 00:35:09;;;;;;;86.00;38.20;;;;;;;-0.14;85.49;99674.00;84723;1332;22610;-74
2021/12/11 00:37:17;;;;;;;96.30;42.00;;;;;;;-0.15;85.33;99676.39;84725;1330;24265;-69
2021/12/11 00:39:25;;;;;;;90.70;43.50;;;;;;;-0.15;85.36;99676.05;84744;1324;22683;-68
2021/12/11 00:41:33;;;;;;;93.70;42.70;;;;;;;-0.11;85.70;99676.20;84695;1330;26673;-68
2021/12/11 00:43:41;;;;;;;95.60;43.20;;;;;;;-0.08;85.63;99682.88;84757;1330;22710;-69
2021/12/11 00:45:48;;;;;;;91.50;44.60;;;;;;;-0.07;85.62;99682.34;84045;1327;1003001;-69
2021/12/11 00:48:00;;;;;;;94.60;44.20;;;;;;;-0.03;85.60;99685.08;84742;1327;22598;-70
2021/12/11 00:50:09;;;;;;;88.40;40.50;;;;;;;-0.01;85.47;99690.88;84732;1327;22590;-68
2021/12/11 00:52:16;;;;;;;84.00;39.60;;;;;;;-0.01;85.27;99690.88;84771;1328;24262;-68
2021/12/11 00:54:22;;;;;;;85.40;40.00;;;;;;;0.02;85.36;99693.10;84750;1327;22620;-69
2021/12/11 00:56:32;;;;;;;89.10;42.50;;;;;;;-0.01;85.00;99700.49;84782;1330;24233;-72
2021/12/11 00:58:39;;;;;;;89.80;42.30;;;;;;;-0.04;85.14;99694.34;84753;1328;25626;-68
2021/12/11 01:00:49;;;;;;;87.50;40.50;;;;;;;0.01;85.37;99698.09;84592;1333;23709;-70
2021/12/11 01:02:56;;;;;;;96.40;41.20;;;;;;;-0.01;85.35;99701.86;84737;1330;24311;-69
2021/12/11 01:05:03;;;;;;;104.90;41.80;;;;;;;-0.04;85.15;99703.76;84757;1330;22612;-69
2021/12/11 01:07:17;;;;;;;91.90;41.50;;;;;;;-0.06;85.28;99706.17;84749;1327;25437;-69
2021/12/11 01:09:25;;;;;;;93.50;41.40;;;;;;;-0.07;84.91;99701.38;84750;1329;23899;-68
2021/12/11 01:11:40;;;;;;;90.50;38.50;;;;;;;-0.10;84.95;99699.52;84770;1329;22636;-69
2021/12/11 01:13:49;;;;;;;88.20;39.30;;;;;;;-0.11;85.21;99699.86;84746;1328;26480;-70
2021/12/11 01:16:04;;;;;;;92.60;40.50;;;;;;;-0.07;85.28;99703.09;84728;1327;22714;-68
2021/12/11 01:18:22;;;;;;;91.20;40.70;;;;;;;-0.06;85.28;99708.05;84757;1327;22714;-69
2021/12/11 01:20:36;;;;;;;94.30;41.00;;;;;;;-0.03;85.49;99715.08;84758;1330;22603;-69
2021/12/11 01:22:43;;;;;;;92.90;39.30;;;;;;;-0.05;85.14;99716.80;84750;1328;22589;-75
2021/12/11 01:24:52;;;;;;;99.00;36.60;;;;;;;-0.11;85.11;99722.32;84744;1328;26674;-73
2021/12/11 01:27:00;;;;;;;87.70;38.50;;;;;;;-0.13;85.29;99727.13;84042;1327;1003062;-69
2021/12/11 01:29:06;;;;;;;90.50;37.80;;;;;;;-0.11;85.28;99726.27;84751;1327;22606;-69
2021/12/11 01:31:14;;;;;;;90.00;38.80;;;;;;;-0.08;85.25;99732.25;84724;1327;22609;-72
2021/12/11 01:33:22;;;;;;;81.20;35.40;;;;;;;-0.05;85.14;99732.74;84782;1326;22649;-74
2021/12/11 01:35:30;;;;;;;80.90;34.70;;;;;;;-0.07;85.15;99737.38;84731;1327;25624;-74
2021/12/11 01:37:38;;;;;;;82.30;34.50;;;;;;;-0.10;84.99;99735.34;84800;1328;22943;-73
2021/12/11 01:39:44;;;;;;;81.40;35.10;;;;;;;-0.13;84.95;99731.75;84755;1330;22585;-73
2021/12/11 01:41:51;;;;;;;80.50;35.70;;;;;;;-0.13;85.24;99728.52;84055;1322;1003608;-70
2021/12/11 01:44:00;;;;;;;82.00;37.40;;;;;;;-0.13;85.09;99729.88;84773;1330;22611;-68
2021/12/11 01:46:07;;;;;;;82.20;33.80;;;;;;;-0.14;85.03;99734.84;84814;1327;23967;-72
2021/12/11 01:48:13;;;;;;;78.90;33.60;;;;;;;-0.14;84.99;99739.13;84669;1332;22592;-74
2021/12/11 01:50:23;;;;;;;69.40;31.40;;;;;;;-0.15;85.07;99742.39;84791;1327;22596;-72
2021/12/11 01:52:33;;;;;;;77.40;34.30;;;;;;;-0.14;85.22;99749.59;84800;1327;22706;-68
2021/12/11 01:54:43;;;;;;;72.10;32.10;;;;;;;-0.13;84.99;99752.00;84763;1327;22598;-69
2021/12/11 01:56:58;;;;;;;87.40;32.90;;;;;;;-0.13;85.32;99756.11;84757;1327;25316;-72
2021/12/11 01:59:07;;;;;;;95.20;35.10;;;;;;;-0.13;85.27;99755.93;84758;1327;22746;-74
2021/12/11 02:01:15;;;;;;;119.70;32.50;;;;;;;-0.16;84.92;99754.05;84795;1326;25553;-74
2021/12/11 02:03:24;;;;;;;81.30;35.90;;;;;;;-0.23;84.70;99756.48;84744;1327;22667;-73
2021/12/11 02:05:32;;;;;;;73.50;33.50;;;;;;;-0.30;84.89;99757.54;84769;1327;24859;-73
2021/12/11 02:07:41;;;;;;;70.30;32.50;;;;;;;-0.28;84.94;99757.55;84767;1327;22589;-73
2021/12/11 02:09:54;;;;;;;77.20;33.80;;;;;;;-0.27;85.21;99761.13;84798;1327;22616;-73
2021/12/11 02:12:09;;;;;;;69.70;32.70;;;;;;;-0.25;85.13;99761.30;84776;1326;22606;-68
2021/12/11 02:14:21;;;;;;;74.90;33.50;;;;;;;-0.27;84.92;99764.21;84810;1326;22608;-69
2021/12/11 02:16:30;;;;;;;74.50;32.90;;;;;;;-0.28;84.91;99769.02;84763;1326;22834;-70
2021/12/11 02:18:43;;;;;;;79.70;32.70;;;;;;;-0.27;84.93;99771.07;84821;1326;24006;-68
2021/12/11 02:20:52;;;;;;;79.00;33.30;;;;;;;-0.28;85.27;99772.10;84817;1329;25498;-70
2021/12/11 02:23:00;;;;;;;80.90;32.40;;;;;;;-0.28;85.38;99770.05;84777;1330;22665;-70
2021/12/11 02:25:10;;;;;;;76.90;35.10;;;;;;;-0.28;85.39;99769.71;84105;1327;1003696;-69
2021/12/11 02:27:19;;;;;;;75.50;33.20;;;;;;;-0.30;85.02;99771.77;84820;1325;23868;-68
2021/12/11 02:29:30;;;;;;;61.70;27.80;;;;;;;-0.31;85.07;99775.02;84798;1329;25461;-68
2021/12/11 02:31:42;;;;;;;78.50;32.30;;;;;;;-0.34;85.17;99784.64;84801;1327;25452;-69
2021/12/11 02:33:52;;;;;;;81.90;34.00;;;;;;;-0.33;85.34;99790.64;84773;1328;22758;-69
2021/12/11 02:36:07;;;;;;;76.60;33.40;;;;;;;-0.31;85.29;99793.02;84767;1330;25552;-72
2021/12/11 02:38:16;;;;;;;89.90;36.40;;;;;;;-0.32;85.21;99792.34;84753;1327;25591;-74
2021/12/11 02:40:28;;;;;;;91.20;35.80;;;;;;;-0.30;85.47;99789.59;84743;1327;22764;-73
2021/12/11 02:42:37;;;;;;;83.30;36.20;;;;;;;-0.32;85.25;99790.29;84724;1329;22612;-70
2021/12/11 02:44:47;;;;;;;80.10;33.60;;;;;;;-0.32;85.46;99792.86;84718;1327;25269;-69
2021/12/11 02:46:58;;;;;;;77.00;32.20;;;;;;;-0.34;85.05;99799.20;84746;1328;22920;-72
2021/12/11 02:49:09;;;;;;;73.50;33.70;;;;;;;-0.35;85.11;99805.54;84727;1330;22674;-68
2021/12/11 02:51:18;;;;;;;77.90;35.60;;;;;;;-0.32;85.23;99809.48;84682;1329;22604;-72
2021/12/11 02:53:27;;;;;;;92.60;37.80;;;;;;;-0.29;85.60;99815.99;84757;1330;23206;-73
2021/12/11 02:55:36;;;;;;;90.50;36.90;;;;;;;-0.25;85.42;99822.31;84763;1327;22613;-74
2021/12/11 02:57:45;;;;;;;98.00;36.00;;;;;;;-0.22;85.53;99825.21;84747;1330;25282;-68
2021/12/11 02:59:53;;;;;;;86.90;35.40;;;;;;;-0.23;85.16;99833.27;84753;1330;22619;-69
2021/12/11 03:02:04;;;;;;;81.00;32.40;;;;;;;-0.31;84.99;99835.70;84755;1327;22679;-73
2021/12/11 03:04:18;;;;;;;84.40;36.70;;;;;;;-0.35;84.99;99844.11;84687;1328;23992;-73
2021/12/11 03:06:28;;;;;;;84.70;36.20;;;;;;;-0.36;85.10;99845.30;84700;1330;25584;-73
2021/12/11 03:08:35;;;;;;;87.40;37.40;;;;;;;-0.37;84.99;99847.71;84764;1327;23950;-73
2021/12/11 03:10:43;;;;;;;83.90;34.30;;;;;;;-0.38;84.98;99852.86;84753;1327;25268;-72
2021/12/11 03:12:49;;;;;;;83.10;33.70;;;;;;;-0.37;85.10;99853.02;84750;1327;26525;-68
2021/12/11 03:14:56;;;;;;;80.70;35.90;;;;;;;-0.36;85.08;99855.59;84696;1327;23896;-68
2021/12/11 03:17:02;;;;;;;89.10;36.20;;;;;;;-0.37;85.38;99851.83;84700;1332;22598;-68
2021/12/11 03:19:12;;;;;;;103.20;38.30;;;;;;;-0.39;85.23;99850.29;84737;1327;24011;-69
2021/12/11 03:21:22;;;;;;;91.60;35.80;;;;;;;-0.38;85.38;99852.35;84786;1330;24154;-74
2021/12/11 03:23:31;;;;;;;76.80;34.20;;;;;;;-0.38;85.54;99857.31;84761;1327;22609;-74
2021/12/11 03:25:41;;;;;;;81.60;34.80;;;;;;;-0.40;85.27;99857.82;84736;1330;22674;-73
2021/12/11 03:27:48;;;;;;;84.80;37.30;;;;;;;-0.37;85.43;99858.33;84725;1329;22605;-73
2021/12/11 03:29:55;;;;;;;96.10;38.90;;;;;;;-0.36;85.65;99855.76;84709;1327;22590;-73
2021/12/11 03:32:02;;;;;;;81.40;35.10;;;;;;;-0.31;85.84;99853.35;84736;1329;22845;-69
2021/12/11 03:34:09;;;;;;;94.30;35.70;;;;;;;-0.26;85.81;99856.41;84797;1329;22795;-69
2021/12/11 03:36:18;;;;;;;101.30;39.00;;;;;;;-0.25;85.89;99863.79;84778;1329;22570;-73
2021/12/11 03:38:24;;;;;;;100.20;34.30;;;;;;;-0.29;85.44;99866.38;84759;1327;23088;-74
2021/12/11 03:40:31;;;;;;;81.60;36.90;;;;;;;-0.31;85.57;99862.60;84804;1326;22676;-72
2021/12/11 03:42:39;;;;;;;73.40;32.80;;;;;;;-0.36;85.47;99860.23;84812;1329;24270;-73
2021/12/11 03:44:46;;;;;;;74.70;31.50;;;;;;;-0.36;85.41;99858.16;84798;1327;25495;-74
2021/12/11 03:46:54;;;;;;;72.90;32.70;;;;;;;-0.39;85.28;99857.48;84758;1327;22619;-73
2021/12/11 03:49:02;;;;;;;77.70;33.90;;;;;;;-0.41;85.28;99852.68;84811;1327;22630;-73
2021/12/11 03:51:10;;;;;;;78.80;34.40;;;;;;;-0.36;85.48;99853.70;84786;1326;22955;-72
2021/12/11 03:53:16;;;;;;;84.60;34.80;;;;;;;-0.33;85.47;99854.73;84781;1325;22617;-72
2021/12/11 03:55:25;;;;;;;101.60;34.40;;;;;;;-0.35;85.30;99855.77;84784;1327;25654;-73
2021/12/11 03:57:37;;;;;;;84.90;36.30;;;;;;;-0.42;85.14;99855.79;84837;1326;22608;-70
2021/12/11 03:59:47;;;;;;;100.00;32.50;;;;;;;-0.45;85.18;99862.11;84761;1327;24219;-68
2021/12/11 04:01:58;;;;;;;107.00;34.00;;;;;;;-0.52;85.20;99864.86;84795;1325;25264;-72
2021/12/11 04:04:07;;;;;;;81.50;32.90;;;;;;;-0.60;84.80;99871.38;84812;1327;22609;-74
2021/12/11 04:06:14;;;;;;;64.10;31.50;;;;;;;-0.66;84.78;99875.67;84798;1326;24268;-73
2021/12/11 04:08:22;;;;;;;63.80;31.70;;;;;;;-0.73;84.84;99879.44;84784;1327;22620;-73
2021/12/11 04:10:30;;;;;;;74.60;31.40;;;;;;;-0.75;84.79;99883.71;84799;1327;22597;-73
2021/12/11 04:12:37;;;;;;;70.70;29.10;;;;;;;-0.76;84.95;99885.95;84803;1326;22624;-69
2021/12/11 04:14:48;;;;;;;74.70;31.70;;;;;;;-0.75;85.03;99884.58;84826;1318;22725;-74
2021/12/11 04:16:55;;;;;;;70.20;30.30;;;;;;;-0.72;85.03;99881.34;84850;1325;22594;-74
2021/12/11 04:19:02;;;;;;;79.00;30.50;;;;;;;-0.71;85.15;99878.41;84080;1327;1003666;-74
2021/12/11 04:21:09;;;;;;;71.30;29.80;;;;;;;-0.68;85.27;99880.30;84799;1327;22590;-72
2021/12/11 04:23:20;;;;;;;74.70;31.10;;;;;;;-0.68;85.36;99880.65;84797;1326;22593;-73
2021/12/11 04:25:27;;;;;;;77.10;31.10;;;;;;;-0.67;85.40;99880.48;84802;1318;22593;-72
2021/12/11 04:27:34;;;;;;;68.10;28.20;;;;;;;-0.66;85.25;99882.34;84812;1327;22597;-74
2021/12/11 04:29:43;;;;;;;68.70;31.00;;;;;;;-0.67;85.24;99882.70;84755;1329;22700;-73
2021/12/11 04:31:50;;;;;;;75.10;33.10;;;;;;;-0.67;85.16;99882.02;84793;1327;25309;-73
2021/12/11 04:33:59;;;;;;;73.60;34.00;;;;;;;-0.70;84.83;99885.27;84752;1327;22608;-73
2021/12/11 04:36:06;;;;;;;71.80;30.70;;;;;;;-0.73;84.99;99891.27;84767;1327;23940;-69
2021/12/11 04:38:14;;;;;;;80.20;33.30;;;;;;;-0.72;85.20;99897.77;84592;1330;25454;-67
2021/12/11 04:40:22;;;;;;;82.80;33.40;;;;;;;-0.74;85.22;99902.05;84662;1329;22724;-69
2021/12/11 04:42:45;;;;;;;86.10;35.00;;;;;;;-0.75;85.17;99906.16;84754;1327;24266;-73
2021/12/11 04:44:52;;;;;;;78.70;32.90;;;;;;;-0.71;85.43;99910.10;84739;1326;22616;-72
2021/12/11 04:46:59;;;;;;;71.60;30.80;;;;;;;-0.68;85.36;99911.30;84689;1326;22716;-68
2021/12/11 04:49:11;;;;;;;74.90;32.10;;;;;;;-0.69;85.17;99911.81;84755;1327;22759;-75
2021/12/11 04:51:25;;;;;;;69.40;33.80;;;;;;;-0.69;85.04;99910.45;84659;1332;22879;-69
2021/12/11 04:53:47;;;;;;;76.20;33.60;;;;;;;-0.68;85.21;99914.56;84786;1327;25776;-68
2021/12/11 04:56:14;;;;;;;82.50;34.70;;;;;;;-0.70;85.28;99914.71;84771;1327;22694;-69
2021/12/11 05:00:57;;;;;;;83.60;35.40;;;;;;;-0.71;85.13;99915.07;84736;1327;23998;-70
2021/12/11 05:06:00;;;;;;;73.30;34.40;;;;;;;-0.69;85.40;99917.12;82001;1370;545059;-68
2021/12/11 05:08:27;;;;;;;84.90;34.50;;;;;;;-0.71;85.12;99923.80;84248;1342;23982;-68
2021/12/11 05:10:39;;;;;;;80.90;36.20;;;;;;;-0.72;85.24;99927.57;84077;1340;22632;-69
2021/12/11 05:12:47;;;;;;;85.40;36.90;;;;;;;-0.69;85.17;99928.27;84087;1343;22599;-73
2021/12/11 05:14:54;;;;;;;78.20;34.60;;;;;;;-0.66;85.29;99930.48;84086;1343;22628;-73
2021/12/11 05:17:00;;;;;;;76.20;34.90;;;;;;;-0.64;85.17;99928.08;84087;1340;22592;-73
2021/12/11 05:19:07;;;;;;;82.10;35.00;;;;;;;-0.66;84.83;99937.33;83881;1343;257559;-74
2021/12/11 05:21:15;;;;;;;76.00;34.50;;;;;;;-0.64;85.23;99938.70;84290;1336;22697;-73
2021/12/11 05:23:22;;;;;;;83.20;37.70;;;;;;;-0.63;85.16;99943.86;84262;1338;22749;-74
2021/12/11 05:25:29;;;;;;;89.70;36.00;;;;;;;-0.59;85.61;99947.27;84395;1336;25469;-74
2021/12/11 05:27:36;;;;;;;73.50;32.40;;;;;;;-0.57;85.30;99950.37;84458;1339;25397;-73
2021/12/11 05:29:43;;;;;;;72.10;28.60;;;;;;;-0.58;84.85;99954.64;84405;1338;23981;-74
2021/12/11 05:31:50;;;;;;;78.40;33.00;;;;;;;-0.59;85.01;99956.86;84465;1328;22638;-73
2021/12/11 05:33:56;;;;;;;60.60;30.20;;;;;;;-0.60;85.02;99954.98;84441;1332;22656;-73
2021/12/11 05:36:03;;;;;;;69.00;30.80;;;;;;;-0.62;84.79;99961.16;84440;1338;22870;-72
2021/12/11 05:38:11;;;;;;;64.40;30.40;;;;;;;-0.64;84.94;99961.67;84434;1336;22629;-73
2021/12/11 05:40:19;;;;;;;73.30;31.90;;;;;;;-0.63;85.05;99961.84;84622;1330;25446;-73
2021/12/11 05:42:26;;;;;;;98.40;39.80;;;;;;;-0.64;84.80;99966.45;84552;1332;22637;-68
2021/12/11 05:44:33;;;;;;;70.70;30.80;;;;;;;-0.66;84.99;99965.77;84599;1333;24372;-69
2021/12/11 05:46:39;;;;;;;86.80;33.10;;;;;;;-0.69;84.97;99969.36;84618;1333;25433;-68
2021/12/11 05:48:47;;;;;;;77.00;30.70;;;;;;;-0.72;84.91;99970.23;84594;1330;22616;-68
2021/12/11 05:50:55;;;;;;;66.00;28.60;;;;;;;-0.73;84.81;99968.67;84616;1330;22691;-72
2021/12/11 05:53:02;;;;;;;68.40;28.50;;;;;;;-0.72;84.96;99971.27;84613;1327;22742;-73
2021/12/11 05:55:13;;;;;;;66.10;30.20;;;;;;;-0.71;84.97;99972.10;84534;1333;22720;-73
2021/12/11 05:57:21;;;;;;;66.30;28.10;;;;;;;-0.69;85.26;99973.14;84636;1331;22633;-74
2021/12/11 05:59:28;;;;;;;67.10;31.80;;;;;;;-0.69;84.98;99976.23;84647;1330;26656;-73
2021/12/11 06:01:37;;;;;;;70.50;33.70;;;;;;;-0.70;85.03;99981.01;84598;1330;22758;-69
2021/12/11 06:03:44;;;;;;;71.30;31.20;;;;;;;-0.70;85.12;99983.05;84644;1330;23802;-68
2021/12/11 06:05:50;;;;;;;67.90;29.80;;;;;;;-0.70;85.15;99986.83;83871;1330;1003175;-68
2021/12/11 06:07:57;;;;;;;64.50;29.90;;;;;;;-0.72;85.09;99989.06;84568;1335;22597;-69
2021/12/11 06:10:07;;;;;;;72.50;30.40;;;;;;;-0.73;85.06;99992.66;84580;1330;22627;-69
2021/12/11 06:12:14;;;;;;;63.20;30.50;;;;;;;-0.73;84.85;99990.08;84567;1335;22574;-68
2021/12/11 06:14:21;;;;;;;66.70;29.90;;;;;;;-0.73;85.16;99989.23;84579;1334;22628;-69
2021/12/11 06:16:28;;;;;;;80.00;33.90;;;;;;;-0.73;85.12;99988.04;84553;1332;22610;-69
2021/12/11 06:18:34;;;;;;;64.60;30.10;;;;;;;-0.71;85.42;99988.38;84558;1329;25309;-68
2021/12/11 06:20:41;;;;;;;68.50;30.30;;;;;;;-0.71;85.29;99994.02;84574;1330;22609;-71
2021/12/11 06:22:48;;;;;;;65.30;29.00;;;;;;;-0.72;85.24;99999.34;83861;1331;1003663;-74
2021/12/11 06:24:55;;;;;;;71.30;29.00;;;;;;;-0.73;85.24;99998.13;84568;1327;22689;-74
2021/12/11 06:27:01;;;;;;;70.70;30.00;;;;;;;-0.73;85.52;99997.80;84541;1330;25472;-68
2021/12/11 06:29:08;;;;;;;69.40;27.20;;;;;;;-0.72;85.33;99997.97;84583;1332;22707;-68
2021/12/11 06:31:18;;;;;;;65.60;29.80;;;;;;;-0.71;85.29;99996.59;84579;1329;22606;-73
2021/12/11 06:33:25;;;;;;;71.20;28.60;;;;;;;-0.69;85.21;100002.09;84569;1332;23949;-72
2021/12/11 06:35:34;;;;;;;77.60;30.70;;;;;;;-0.67;85.51;100010.66;84550;1335;23874;-74
2021/12/11 06:37:41;;;;;;;79.60;29.70;;;;;;;-0.63;85.70;100011.17;84580;1332;22760;-69
2021/12/11 06:39:47;;;;;;;68.70;29.80;;;;;;;-0.61;85.49;100006.55;84547;1332;24044;-68
2021/12/11 06:41:59;;;;;;;82.10;30.50;;;;;;;-0.62;85.37;100011.00;84585;1335;22613;-74
2021/12/11 06:44:06;;;;;;;86.30;34.00;;;;;;;-0.63;85.36;100008.60;84582;1327;22623;-74
2021/12/11 06:46:13;;;;;;;80.90;31.80;;;;;;;-0.65;85.28;100008.41;84560;1324;22862;-69
2021/12/11 06:48:19;;;;;;;122.40;56.10;;;;;;;-0.64;85.41;100015.27;84555;1328;22609;-69
2021/12/11 06:50:27;;;;;;;77.10;30.50;;;;;;;-0.60;85.41;100023.16;84591;1328;22951;-68
2021/12/11 06:52:34;;;;;;;80.30;33.10;;;;;;;-0.61;85.37;100024.53;84578;1331;22606;-72
2021/12/11 06:54:40;;;;;;;87.20;35.20;;;;;;;-0.59;85.39;100022.15;84584;1331;22629;-73
2021/12/11 06:56:47;;;;;;;85.30;34.60;;;;;;;-0.56;85.34;100019.58;83880;1333;1003206;-68
2021/12/11 06:58:54;;;;;;;80.30;32.10;;;;;;;-0.55;85.49;100021.12;84576;1331;22999;-69
2021/12/11 07:01:01;;;;;;;89.90;31.60;;;;;;;-0.55;85.58;100024.02;84572;1334;22611;-69
2021/12/11 07:03:08;;;;;;;85.70;32.80;;;;;;;-0.55;85.44;100034.64;84562;1330;23947;-69
2021/12/11 07:05:14;;;;;;;90.30;33.10;;;;;;;-0.56;85.36;100036.36;84577;1330;22777;-68
2021/12/11 07:07:24;;;;;;;82.40;30.70;;;;;;;-0.55;85.22;100033.45;84603;1330;22584;-74
2021/12/11 07:09:32;;;;;;;78.80;31.70;;;;;;;-0.54;85.46;100026.27;84607;1330;22610;-73
2021/12/11 07:11:42;;;;;;;85.00;34.00;;;;;;;-0.53;85.51;100025.92;84606;1330;22656;-73
2021/12/11 07:13:49;;;;;;;84.10;33.10;;;;;;;-0.50;85.49;100029.69;84587;1333;24263;-73
2021/12/11 07:15:58;;;;;;;87.40;33.60;;;;;;;-0.50;85.51;100037.39;84601;1330;25310;-73
2021/12/11 07:18:08;;;;;;;84.60;33.90;;;;;;;-0.49;85.44;100049.91;84597;1330;22732;-73
2021/12/11 07:20:15;;;;;;;85.40;32.80;;;;;;;-0.48;85.49;100051.98;84576;1331;22589;-73
2021/12/11 07:22:25;;;;;;;82.50;32.30;;;;;;;-0.44;85.90;100054.37;84586;1331;22603;-68
2021/12/11 07:24:36;;;;;;;76.70;31.20;;;;;;;-0.41;85.70;100060.37;84573;1330;22619;-69
2021/12/11 07:26:45;;;;;;;82.20;31.20;;;;;;;-0.39;85.77;100066.90;84594;1333;22598;-74
2021/12/11 07:28:55;;;;;;;79.20;34.40;;;;;;;-0.35;85.68;100064.16;84614;1330;25319;-74
2021/12/11 07:31:02;;;;;;;73.20;30.90;;;;;;;-0.31;85.70;100062.44;84629;1330;22591;-72
2021/12/11 07:33:15;;;;;;;87.50;32.70;;;;;;;-0.29;85.74;100063.48;84611;1330;22656;-68
2021/12/11 07:35:30;;;;;;;71.30;31.20;;;;;;;-0.27;85.64;100067.42;84598;1334;22735;-72
2021/12/11 07:37:39;;;;;;;;;;;;;;;-0.25;85.81;100069.14;84555;1332;22590;-69
2021/12/11 07:39:49;;;;;;;79.70;31.20;;;;;;;-0.26;85.77;100067.94;84611;1331;22621;-72
2021/12/11 07:41:59;;;;;;;83.30;32.60;;;;;;;-0.23;85.85;100069.15;84645;1330;23668;-73
2021/12/11 07:44:09;;;;;;;83.80;34.70;;;;;;;-0.20;85.96;100073.95;84541;1331;22717;-69
2021/12/11 07:46:21;;;;;;;79.20;32.30;;;;;;;-0.15;85.76;100076.85;84622;1329;22595;-69
2021/12/11 07:48:31;;;;;;;89.30;36.90;;;;;;;-0.12;85.76;100080.98;84643;1327;22674;-69
2021/12/11 07:50:38;;;;;;;79.60;31.60;;;;;;;-0.08;85.68;100085.79;84465;1333;24115;-69
2021/12/11 07:52:47;;;;;;;80.80;34.30;;;;;;;-0.04;85.68;100090.42;84605;1330;24027;-72
2021/12/11 07:54:54;;;;;;;85.30;34.90;;;;;;;0.01;85.85;100094.55;84619;1330;22621;-72
2021/12/11 07:57:01;;;;;;;76.60;34.10;;;;;;;0.05;85.83;100090.23;84614;1326;25645;-69
2021/12/11 07:59:09;;;;;;;75.50;32.10;;;;;;;0.08;85.77;100093.85;84573;1335;22607;-69
2021/12/11 08:01:16;;;;;;;86.30;35.20;;;;;;;0.10;85.58;100095.23;84621;1330;22684;-69
2021/12/11 08:03:24;;;;;;;86.50;35.40;;;;;;;0.12;85.57;100100.38;84575;1331;22813;-70
2021/12/11 08:05:36;;;;;;;83.00;33.30;;;;;;;0.14;85.73;100101.73;84615;1330;22587;-69
2021/12/11 08:07:46;;;;;;;77.00;32.40;;;;;;;0.19;85.76;100103.79;84648;1329;22587;-69
2021/12/11 08:09:57;;;;;;;79.30;28.90;;;;;;;0.24;85.59;100103.27;84582;1329;22623;-69
2021/12/11 08:12:08;;;;;;;73.50;31.40;;;;;;;0.28;85.36;100104.82;84629;1334;22811;-73
2021/12/11 08:14:19;;;;;;;76.60;31.60;;;;;;;0.29;85.42;100106.02;84591;1328;22618;-71
2021/12/11 08:16:32;;;;;;;;;;;;;;;0.30;85.10;100112.72;84606;1326;22575;-72
2021/12/11 08:18:42;;;;;;;78.80;32.00;;;;;;;0.29;85.26;100116.31;84602;1330;26617;-73
2021/12/11 08:20:49;;;;;;;87.30;32.60;;;;;;;0.30;85.12;100124.55;84564;1329;22795;-71
2021/12/11 08:23:01;;;;;;;75.40;31.30;;;;;;;0.29;85.06;100125.92;84577;1331;24620;-73
2021/12/11 08:25:11;;;;;;;70.60;30.10;;;;;;;0.27;85.12;100127.46;84611;1330;22608;-72
2021/12/11 08:27:22;;;;;;;75.80;32.30;;;;;;;0.23;85.04;100133.98;84629;1330;22606;-72
2021/12/11 08:29:29;;;;;;;70.70;29.50;;;;;;;0.20;84.84;100136.05;84622;1330;22771;-73
2021/12/11 08:31:39;;;;;;;77.40;29.20;;;;;;;0.20;85.18;100138.28;84591;1330;24277;-73
2021/12/11 08:33:49;;;;;;;74.20;30.30;;;;;;;0.20;85.08;100142.58;84716;1327;22920;-72
2021/12/11 08:36:00;;;;;;;72.60;30.80;;;;;;;0.22;85.18;100145.81;84730;1327;22827;-68
2021/12/11 08:38:09;;;;;;;75.70;31.40;;;;;;;0.25;85.27;100147.04;84692;1325;22589;-69
2021/12/11 08:40:22;;;;;;;72.10;30.60;;;;;;;0.28;85.23;100152.51;84689;1327;22604;-68
2021/12/11 08:42:32;;;;;;;80.90;34.50;;;;;;;0.29;85.29;100159.71;84670;1329;23981;-70
2021/12/11 08:44:50;;;;;;;78.30;32.80;;;;;;;0.31;85.27;100161.61;84697;1327;22605;-70
2021/12/11 08:47:02;;;;;;;76.40;33.20;;;;;;;0.27;85.13;100166.94;84688;1329;22629;-69
2021/12/11 08:49:10;;;;;;;70.20;32.00;;;;;;;0.26;85.04;100165.05;84661;1328;27097;-69
2021/12/11 08:51:23;;;;;;;76.80;33.60;;;;;;;0.25;85.16;100172.77;84677;1330;22619;-74
2021/12/11 08:53:34;;;;;;;76.00;31.80;;;;;;;0.29;85.16;100173.09;84699;1329;22610;-70
2021/12/11 08:55:45;;;;;;;79.70;34.40;;;;;;;0.33;85.40;100172.41;84697;1330;22751;-69
2021/12/11 08:57:53;;;;;;;81.30;36.40;;;;;;;0.35;85.33;100175.52;84728;1332;22688;-70
2021/12/11 09:00:05;;;;;;;76.40;33.40;;;;;;;0.38;85.36;100179.45;84706;1330;22637;-74
2021/12/11 09:02:14;;;;;;;79.00;35.70;;;;;;;0.39;85.22;100181.17;84720;1327;24325;-69
2021/12/11 09:04:26;;;;;;;81.30;34.30;;;;;;;0.41;85.31;100181.35;84715;1327;22624;-74
2021/12/11 09:06:36;;;;;;;80.00;36.20;;;;;;;0.43;85.37;100182.20;84700;1330;22604;-68
2021/12/11 09:08:51;;;;;;;82.90;34.30;;;;;;;0.43;85.36;100186.48;84696;1330;24510;-68
2021/12/11 09:11:10;;;;;;;69.80;31.60;;;;;;;0.44;85.13;100193.02;84701;1328;22593;-74
2021/12/11 09:13:22;;;;;;;82.50;34.70;;;;;;;0.46;85.16;100190.95;84724;1321;22636;-69
2021/12/11 09:15:35;;;;;;;80.60;33.60;;;;;;;0.50;85.08;100195.09;84623;1333;23500;-69
2021/12/11 09:17:44;;;;;;;80.30;35.00;;;;;;;0.52;85.17;100199.88;84710;1330;22763;-69
2021/12/11 09:20:00;;;;;;;85.20;36.30;;;;;;;0.53;85.05;100204.16;84679;1330;24303;-74
2021/12/11 09:22:11;;;;;;;85.40;36.00;;;;;;;0.55;85.38;100206.41;84682;1327;22616;-73
2021/12/11 09:24:23;;;;;;;84.30;34.60;;;;;;;0.56;85.20;100202.98;84727;1329;22698;-74
2021/12/11 09:26:33;;;;;;;90.30;36.40;;;;;;;0.57;85.07;100212.23;84651;1329;22599;-69
2021/12/11 09:28:50;;;;;;;85.20;35.30;;;;;;;0.55;85.17;100217.73;84709;1326;22777;-69
2021/12/11 09:31:05;;;;;;;97.10;39.30;;;;;;;0.53;85.27;100225.96;84669;1328;23081;-73
2021/12/11 09:33:54;;;;;;;101.40;41.40;;;;;;;0.55;85.09;100226.83;84657;1330;23059;-74
2021/12/11 09:36:19;;;;;;;99.00;39.70;;;;;;;0.59;85.31;100225.45;84748;1327;22718;-72
2021/12/11 09:38:32;;;;;;;99.90;40.80;;;;;;;0.64;84.98;100228.02;84699;1330;22661;-75
2021/12/11 09:40:57;;;;;;;106.50;43.20;;;;;;;0.66;85.06;100227.17;84692;1325;24241;-74
2021/12/11 09:43:03;;;;;;;99.50;40.00;;;;;;;0.69;85.21;100229.59;84683;1324;24235;-74
2021/12/11 09:45:12;;;;;;;100.10;41.70;;;;;;;0.71;85.02;100247.94;84699;1329;22632;-75
2021/12/11 09:47:23;;;;;;;94.00;40.40;;;;;;;0.71;84.78;100251.21;84717;1327;22628;-74
2021/12/11 09:49:46;;;;;;;102.80;41.40;;;;;;;0.71;85.07;100254.13;84716;1327;22762;-75
2021/12/11 09:52:02;;;;;;;98.10;43.10;;;;;;;0.73;85.08;100255.33;84705;1329;22639;-73
2021/12/11 09:54:11;;;;;;;89.40;39.90;;;;;;;0.71;84.85;100250.17;84694;1328;22626;-74
2021/12/11 09:56:29;;;;;;;101.70;41.70;;;;;;;0.70;84.78;100255.16;84760;1327;22624;-70
2021/12/11 09:58:40;;;;;;;99.50;40.40;;;;;;;0.69;84.72;100255.33;84656;1329;22606;-69
2021/12/11 10:00:54;;;;;;;88.00;40.70;;;;;;;0.72;84.83;100258.25;84699;1328;24284;-71